sensor_id;sensor_type;location;lat;lon;timestamp;P1;durP1;ratioP1;P2;durP2;ratioP2
19049;SDS011;9657;45.940;12.840;2023-06-01T00:00:58;7.15;;;5.50;;
19049;SDS011;9657;45.940;12.840;2023-06-01T00:03:26;9.50;;;5.72;;
19049;SDS011;9657;45.940;12.840;2023-06-01T00:05:55;6.30;;;5.65;;
19049;SDS011;9657;45.940;12.840;2023-06-01T00:08:23;8.85;;;5.90;;
19049;SDS011;9657;45.940;12.840;2023-06-01T00:10:50;6.75;;;5.25;;
19049;SDS011;9657;45.940;12.840;2023-06-01T00:13:18;8.40;;;5.32;;
19049;SDS011;9657;45.940;12.840;2023-06-01T00:15:45;6.78;;;5.90;;
19049;SDS011;9657;45.940;12.840;2023-06-01T00:18:12;5.55;;;5.05;;
19049;SDS011;9657;45.940;12.840;2023-06-01T00:20:40;7.90;;;5.38;;
19049;SDS011;9657;45.940;12.840;2023-06-01T00:23:09;5.95;;;5.00;;
19049;SDS011;9657;45.940;12.840;2023-06-01T00:25:36;6.50;;;5.43;;
19049;SDS011;9657;45.940;12.840;2023-06-01T00:28:03;9.38;;;6.10;;
19049;SDS011;9657;45.940;12.840;2023-06-01T00:30:30;6.25;;;5.22;;
19049;SDS011;9657;45.940;12.840;2023-06-01T00:32:57;6.93;;;5.65;;
19049;SDS011;9657;45.940;12.840;2023-06-01T00:35:24;11.18;;;6.22;;
19049;SDS011;9657;45.940;12.840;2023-06-01T00:37:51;6.65;;;5.72;;
19049;SDS011;9657;45.940;12.840;2023-06-01T00:40:20;8.23;;;6.22;;
19049;SDS011;9657;45.940;12.840;2023-06-01T00:42:47;7.63;;;5.95;;
19049;SDS011;9657;45.940;12.840;2023-06-01T00:45:14;8.77;;;5.60;;
19049;SDS011;9657;45.940;12.840;2023-06-01T00:47:41;6.53;;;5.80;;
19049;SDS011;9657;45.940;12.840;2023-06-01T00:50:10;7.72;;;5.47;;
19049;SDS011;9657;45.940;12.840;2023-06-01T00:52:38;7.07;;;5.20;;
19049;SDS011;9657;45.940;12.840;2023-06-01T00:55:06;7.32;;;5.60;;
19049;SDS011;9657;45.940;12.840;2023-06-01T00:57:34;7.45;;;5.88;;
19049;SDS011;9657;45.940;12.840;2023-06-01T01:00:02;7.85;;;5.70;;
19049;SDS011;9657;45.940;12.840;2023-06-01T01:04:57;7.20;;;5.95;;
19049;SDS011;9657;45.940;12.840;2023-06-01T01:07:25;7.38;;;5.63;;
19049;SDS011;9657;45.940;12.840;2023-06-01T01:10:00;8.18;;;6.32;;
19049;SDS011;9657;45.940;12.840;2023-06-01T01:12:39;7.10;;;6.00;;
19049;SDS011;9657;45.940;12.840;2023-06-01T01:15:15;6.35;;;5.63;;
19049;SDS011;9657;45.940;12.840;2023-06-01T01:17:47;7.80;;;5.78;;
19049;SDS011;9657;45.940;12.840;2023-06-01T01:20:18;7.40;;;5.50;;
19049;SDS011;9657;45.940;12.840;2023-06-01T01:22:55;6.63;;;5.38;;
19049;SDS011;9657;45.940;12.840;2023-06-01T01:28:37;6.40;;;5.47;;
19049;SDS011;9657;45.940;12.840;2023-06-01T01:31:09;6.88;;;5.43;;
19049;SDS011;9657;45.940;12.840;2023-06-01T01:33:39;7.68;;;5.55;;
19049;SDS011;9657;45.940;12.840;2023-06-01T01:36:07;7.28;;;5.65;;
19049;SDS011;9657;45.940;12.840;2023-06-01T01:38:36;7.20;;;5.93;;
19049;SDS011;9657;45.940;12.840;2023-06-01T01:41:03;7.57;;;5.80;;
19049;SDS011;9657;45.940;12.840;2023-06-01T01:43:30;7.30;;;5.70;;
19049;SDS011;9657;45.940;12.840;2023-06-01T01:46:03;7.68;;;6.15;;
19049;SDS011;9657;45.940;12.840;2023-06-01T01:48:37;5.60;;;5.05;;
19049;SDS011;9657;45.940;12.840;2023-06-01T01:51:10;6.85;;;5.82;;
19049;SDS011;9657;45.940;12.840;2023-06-01T01:53:42;7.57;;;5.63;;
19049;SDS011;9657;45.940;12.840;2023-06-01T01:56:12;6.97;;;5.32;;
19049;SDS011;9657;45.940;12.840;2023-06-01T01:58:40;8.00;;;5.85;;
19049;SDS011;9657;45.940;12.840;2023-06-01T02:01:09;6.53;;;5.78;;
19049;SDS011;9657;45.940;12.840;2023-06-01T02:03:38;6.53;;;5.90;;
19049;SDS011;9657;45.940;12.840;2023-06-01T02:06:05;6.82;;;5.50;;
19049;SDS011;9657;45.940;12.840;2023-06-01T02:08:32;5.88;;;5.03;;
19049;SDS011;9657;45.940;12.840;2023-06-01T02:10:59;6.40;;;5.43;;
19049;SDS011;9657;45.940;12.840;2023-06-01T02:13:27;6.25;;;5.43;;
19049;SDS011;9657;45.940;12.840;2023-06-01T02:15:54;6.50;;;5.72;;
19049;SDS011;9657;45.940;12.840;2023-06-01T02:18:23;7.30;;;5.68;;
19049;SDS011;9657;45.940;12.840;2023-06-01T02:20:50;8.32;;;5.90;;
19049;SDS011;9657;45.940;12.840;2023-06-01T02:23:17;6.75;;;5.78;;
19049;SDS011;9657;45.940;12.840;2023-06-01T02:25:44;6.28;;;5.53;;
19049;SDS011;9657;45.940;12.840;2023-06-01T02:28:11;6.22;;;5.63;;
19049;SDS011;9657;45.940;12.840;2023-06-01T02:30:38;6.30;;;5.57;;
19049;SDS011;9657;45.940;12.840;2023-06-01T02:33:05;6.25;;;5.55;;
19049;SDS011;9657;45.940;12.840;2023-06-01T02:35:34;7.90;;;5.88;;
19049;SDS011;9657;45.940;12.840;2023-06-01T02:38:01;7.18;;;5.82;;
19049;SDS011;9657;45.940;12.840;2023-06-01T02:40:28;6.10;;;5.50;;
19049;SDS011;9657;45.940;12.840;2023-06-01T02:42:55;8.18;;;5.68;;
19049;SDS011;9657;45.940;12.840;2023-06-01T02:45:22;6.75;;;5.70;;
19049;SDS011;9657;45.940;12.840;2023-06-01T02:47:49;6.63;;;5.57;;
19049;SDS011;9657;45.940;12.840;2023-06-01T02:50:16;6.85;;;6.15;;
19049;SDS011;9657;45.940;12.840;2023-06-01T02:52:44;5.95;;;5.35;;
19049;SDS011;9657;45.940;12.840;2023-06-01T02:55:12;6.25;;;5.30;;
19049;SDS011;9657;45.940;12.840;2023-06-01T02:57:39;6.20;;;5.15;;
19049;SDS011;9657;45.940;12.840;2023-06-01T03:00:06;6.50;;;5.45;;
19049;SDS011;9657;45.940;12.840;2023-06-01T03:02:40;6.65;;;5.60;;
19049;SDS011;9657;45.940;12.840;2023-06-01T03:05:08;6.28;;;5.25;;
19049;SDS011;9657;45.940;12.840;2023-06-01T03:07:38;6.72;;;5.50;;
19049;SDS011;9657;45.940;12.840;2023-06-01T03:10:07;6.43;;;5.80;;
19049;SDS011;9657;45.940;12.840;2023-06-01T03:12:34;6.90;;;5.50;;
19049;SDS011;9657;45.940;12.840;2023-06-01T03:15:02;6.57;;;5.80;;
19049;SDS011;9657;45.940;12.840;2023-06-01T03:17:30;9.75;;;6.68;;
19049;SDS011;9657;45.940;12.840;2023-06-01T03:19:57;6.05;;;5.07;;
19049;SDS011;9657;45.940;12.840;2023-06-01T03:22:24;5.93;;;5.32;;
19049;SDS011;9657;45.940;12.840;2023-06-01T03:24:51;5.95;;;5.45;;
19049;SDS011;9657;45.940;12.840;2023-06-01T03:27:21;6.22;;;5.63;;
19049;SDS011;9657;45.940;12.840;2023-06-01T03:29:48;8.82;;;5.88;;
19049;SDS011;9657;45.940;12.840;2023-06-01T03:32:15;6.97;;;5.45;;
19049;SDS011;9657;45.940;12.840;2023-06-01T03:34:42;6.55;;;5.90;;
19049;SDS011;9657;45.940;12.840;2023-06-01T03:37:10;6.65;;;5.68;;
19049;SDS011;9657;45.940;12.840;2023-06-01T03:39:37;6.40;;;5.70;;
19049;SDS011;9657;45.940;12.840;2023-06-01T03:42:04;7.20;;;5.78;;
19049;SDS011;9657;45.940;12.840;2023-06-01T03:44:33;7.22;;;5.80;;
19049;SDS011;9657;45.940;12.840;2023-06-01T03:47:00;7.10;;;5.78;;
19049;SDS011;9657;45.940;12.840;2023-06-01T03:49:27;7.65;;;5.78;;
19049;SDS011;9657;45.940;12.840;2023-06-01T03:51:54;7.10;;;6.40;;
19049;SDS011;9657;45.940;12.840;2023-06-01T03:54:21;7.35;;;5.90;;
19049;SDS011;9657;45.940;12.840;2023-06-01T03:56:49;6.38;;;5.57;;
19049;SDS011;9657;45.940;12.840;2023-06-01T03:59:16;7.38;;;5.47;;
19049;SDS011;9657;45.940;12.840;2023-06-01T04:01:44;8.27;;;5.65;;
19049;SDS011;9657;45.940;12.840;2023-06-01T04:04:13;6.45;;;5.82;;
19049;SDS011;9657;45.940;12.840;2023-06-01T04:06:41;6.70;;;6.00;;
19049;SDS011;9657;45.940;12.840;2023-06-01T04:09:10;6.78;;;5.38;;
19049;SDS011;9657;45.940;12.840;2023-06-01T04:11:39;6.28;;;5.68;;
19049;SDS011;9657;45.940;12.840;2023-06-01T04:14:06;7.03;;;5.88;;
19049;SDS011;9657;45.940;12.840;2023-06-01T04:16:33;6.00;;;5.40;;
19049;SDS011;9657;45.940;12.840;2023-06-01T04:19:02;8.90;;;6.13;;
19049;SDS011;9657;45.940;12.840;2023-06-01T04:21:29;8.25;;;6.00;;
19049;SDS011;9657;45.940;12.840;2023-06-01T04:23:57;6.03;;;5.43;;
19049;SDS011;9657;45.940;12.840;2023-06-01T04:26:24;6.18;;;5.57;;
19049;SDS011;9657;45.940;12.840;2023-06-01T04:28:52;6.13;;;5.50;;
19049;SDS011;9657;45.940;12.840;2023-06-01T04:31:22;7.55;;;5.93;;
19049;SDS011;9657;45.940;12.840;2023-06-01T04:33:49;7.15;;;5.93;;
19049;SDS011;9657;45.940;12.840;2023-06-01T04:36:19;7.07;;;5.85;;
19049;SDS011;9657;45.940;12.840;2023-06-01T04:38:47;6.50;;;5.68;;
19049;SDS011;9657;45.940;12.840;2023-06-01T04:41:19;8.30;;;6.00;;
19049;SDS011;9657;45.940;12.840;2023-06-01T04:43:46;6.65;;;5.65;;
19049;SDS011;9657;45.940;12.840;2023-06-01T04:46:16;6.40;;;5.80;;
19049;SDS011;9657;45.940;12.840;2023-06-01T04:48:45;6.55;;;5.85;;
19049;SDS011;9657;45.940;12.840;2023-06-01T04:51:12;6.50;;;5.90;;
19049;SDS011;9657;45.940;12.840;2023-06-01T04:53:44;6.55;;;5.85;;
19049;SDS011;9657;45.940;12.840;2023-06-01T04:56:15;6.85;;;5.45;;
19049;SDS011;9657;45.940;12.840;2023-06-01T04:58:43;9.95;;;6.13;;
19049;SDS011;9657;45.940;12.840;2023-06-01T05:01:12;6.75;;;5.50;;
19049;SDS011;9657;45.940;12.840;2023-06-01T05:03:40;6.70;;;5.95;;
19049;SDS011;9657;45.940;12.840;2023-06-01T05:06:09;8.80;;;6.05;;
19049;SDS011;9657;45.940;12.840;2023-06-01T05:08:37;7.10;;;5.38;;
19049;SDS011;9657;45.940;12.840;2023-06-01T05:11:06;6.38;;;5.78;;
19049;SDS011;9657;45.940;12.840;2023-06-01T05:13:34;8.07;;;6.15;;
19049;SDS011;9657;45.940;12.840;2023-06-01T05:16:02;5.97;;;5.45;;
19049;SDS011;9657;45.940;12.840;2023-06-01T05:18:29;6.43;;;5.63;;
19049;SDS011;9657;45.940;12.840;2023-06-01T05:20:56;8.57;;;6.13;;
19049;SDS011;9657;45.940;12.840;2023-06-01T05:23:23;6.60;;;5.90;;
19049;SDS011;9657;45.940;12.840;2023-06-01T05:25:51;7.50;;;5.88;;
19049;SDS011;9657;45.940;12.840;2023-06-01T05:28:21;6.10;;;5.50;;
19049;SDS011;9657;45.940;12.840;2023-06-01T05:30:48;7.53;;;5.82;;
19049;SDS011;9657;45.940;12.840;2023-06-01T05:33:15;9.02;;;6.28;;
19049;SDS011;9657;45.940;12.840;2023-06-01T05:35:42;7.38;;;5.75;;
19049;SDS011;9657;45.940;12.840;2023-06-01T05:38:09;7.47;;;6.10;;
19049;SDS011;9657;45.940;12.840;2023-06-01T05:40:36;6.63;;;5.38;;
19049;SDS011;9657;45.940;12.840;2023-06-01T05:43:03;8.27;;;6.00;;
19049;SDS011;9657;45.940;12.840;2023-06-01T05:45:33;8.02;;;5.68;;
19049;SDS011;9657;45.940;12.840;2023-06-01T05:48:00;7.13;;;5.90;;
19049;SDS011;9657;45.940;12.840;2023-06-01T05:50:27;6.75;;;5.43;;
19049;SDS011;9657;45.940;12.840;2023-06-01T05:52:55;6.90;;;5.82;;
19049;SDS011;9657;45.940;12.840;2023-06-01T05:55:22;8.60;;;5.95;;
19049;SDS011;9657;45.940;12.840;2023-06-01T05:57:49;8.27;;;6.63;;
19049;SDS011;9657;45.940;12.840;2023-06-01T06:00:16;6.95;;;6.25;;
19049;SDS011;9657;45.940;12.840;2023-06-01T06:02:45;9.15;;;5.90;;
19049;SDS011;9657;45.940;12.840;2023-06-01T06:05:12;7.00;;;6.30;;
19049;SDS011;9657;45.940;12.840;2023-06-01T06:07:41;6.85;;;5.63;;
19049;SDS011;9657;45.940;12.840;2023-06-01T06:10:08;7.10;;;5.78;;
19049;SDS011;9657;45.940;12.840;2023-06-01T06:12:35;6.35;;;5.60;;
19049;SDS011;9657;45.940;12.840;2023-06-01T06:15:03;6.30;;;5.70;;
19049;SDS011;9657;45.940;12.840;2023-06-01T06:17:31;6.80;;;5.68;;
19049;SDS011;9657;45.940;12.840;2023-06-01T06:19:59;8.70;;;5.68;;
19049;SDS011;9657;45.940;12.840;2023-06-01T06:22:31;7.53;;;5.63;;
19049;SDS011;9657;45.940;12.840;2023-06-01T06:24:58;6.25;;;5.65;;
19049;SDS011;9657;45.940;12.840;2023-06-01T06:27:25;6.15;;;5.55;;
19049;SDS011;9657;45.940;12.840;2023-06-01T06:29:52;6.45;;;5.18;;
19049;SDS011;9657;45.940;12.840;2023-06-01T06:32:20;6.63;;;6.03;;
19049;SDS011;9657;45.940;12.840;2023-06-01T06:34:47;9.18;;;6.13;;
19049;SDS011;9657;45.940;12.840;2023-06-01T06:37:16;7.03;;;5.57;;
19049;SDS011;9657;45.940;12.840;2023-06-01T06:39:43;7.13;;;5.63;;
19049;SDS011;9657;45.940;12.840;2023-06-01T06:42:10;6.13;;;5.45;;
19049;SDS011;9657;45.940;12.840;2023-06-01T06:44:37;7.85;;;5.85;;
19049;SDS011;9657;45.940;12.840;2023-06-01T06:47:05;7.15;;;5.82;;
19049;SDS011;9657;45.940;12.840;2023-06-01T06:49:32;7.00;;;5.82;;
19049;SDS011;9657;45.940;12.840;2023-06-01T06:51:59;6.40;;;5.30;;
19049;SDS011;9657;45.940;12.840;2023-06-01T06:54:28;6.53;;;5.43;;
19049;SDS011;9657;45.940;12.840;2023-06-01T06:56:55;7.15;;;5.75;;
19049;SDS011;9657;45.940;12.840;2023-06-01T06:59:22;7.93;;;5.95;;
19049;SDS011;9657;45.940;12.840;2023-06-01T07:01:49;7.15;;;5.70;;
19049;SDS011;9657;45.940;12.840;2023-06-01T07:04:16;9.13;;;5.90;;
19049;SDS011;9657;45.940;12.840;2023-06-01T07:06:43;6.68;;;5.32;;
19049;SDS011;9657;45.940;12.840;2023-06-01T07:09:10;7.45;;;5.75;;
19049;SDS011;9657;45.940;12.840;2023-06-01T07:11:39;9.43;;;6.78;;
19049;SDS011;9657;45.940;12.840;2023-06-01T07:14:10;6.50;;;5.25;;
19049;SDS011;9657;45.940;12.840;2023-06-01T07:16:37;6.75;;;5.70;;
19049;SDS011;9657;45.940;12.840;2023-06-01T07:19:04;9.43;;;5.60;;
19049;SDS011;9657;45.940;12.840;2023-06-01T07:21:31;8.13;;;5.88;;
19049;SDS011;9657;45.940;12.840;2023-06-01T07:23:59;7.10;;;5.82;;
19049;SDS011;9657;45.940;12.840;2023-06-01T07:26:27;8.02;;;5.60;;
19049;SDS011;9657;45.940;12.840;2023-06-01T07:28:56;6.97;;;5.82;;
19049;SDS011;9657;45.940;12.840;2023-06-01T07:31:24;6.25;;;5.38;;
19049;SDS011;9657;45.940;12.840;2023-06-01T07:33:52;7.57;;;5.55;;
19049;SDS011;9657;45.940;12.840;2023-06-01T07:36:20;6.95;;;5.72;;
19049;SDS011;9657;45.940;12.840;2023-06-01T07:38:48;6.60;;;5.55;;
19049;SDS011;9657;45.940;12.840;2023-06-01T07:41:16;6.30;;;5.70;;
19049;SDS011;9657;45.940;12.840;2023-06-01T07:43:43;7.25;;;5.15;;
19049;SDS011;9657;45.940;12.840;2023-06-01T07:46:12;6.00;;;5.25;;
19049;SDS011;9657;45.940;12.840;2023-06-01T07:48:39;5.40;;;5.00;;
19049;SDS011;9657;45.940;12.840;2023-06-01T07:51:06;6.10;;;5.07;;
19049;SDS011;9657;45.940;12.840;2023-06-01T07:53:33;6.72;;;5.43;;
19049;SDS011;9657;45.940;12.840;2023-06-01T07:56:01;5.78;;;5.28;;
19049;SDS011;9657;45.940;12.840;2023-06-01T07:58:28;6.10;;;5.43;;
19049;SDS011;9657;45.940;12.840;2023-06-01T08:00:55;6.45;;;5.82;;
19049;SDS011;9657;45.940;12.840;2023-06-01T08:03:23;8.00;;;5.93;;
19049;SDS011;9657;45.940;12.840;2023-06-01T08:05:51;6.80;;;5.35;;
19049;SDS011;9657;45.940;12.840;2023-06-01T08:08:24;5.93;;;5.32;;
19049;SDS011;9657;45.940;12.840;2023-06-01T08:10:51;7.75;;;5.93;;
19049;SDS011;9657;45.940;12.840;2023-06-01T08:13:18;9.82;;;5.65;;
19049;SDS011;9657;45.940;12.840;2023-06-01T08:15:45;5.53;;;4.97;;
19049;SDS011;9657;45.940;12.840;2023-06-01T08:18:13;5.75;;;5.22;;
19049;SDS011;9657;45.940;12.840;2023-06-01T08:20:41;5.68;;;5.18;;
19049;SDS011;9657;45.940;12.840;2023-06-01T08:23:09;6.28;;;5.50;;
19049;SDS011;9657;45.940;12.840;2023-06-01T08:25:36;6.07;;;5.32;;
19049;SDS011;9657;45.940;12.840;2023-06-01T08:28:03;5.93;;;5.20;;
19049;SDS011;9657;45.940;12.840;2023-06-01T08:30:30;6.35;;;5.00;;
19049;SDS011;9657;45.940;12.840;2023-06-01T08:32:57;6.07;;;5.05;;
19049;SDS011;9657;45.940;12.840;2023-06-01T08:35:24;5.80;;;5.28;;
19049;SDS011;9657;45.940;12.840;2023-06-01T08:37:53;6.32;;;5.40;;
19049;SDS011;9657;45.940;12.840;2023-06-01T08:40:20;7.05;;;4.90;;
19049;SDS011;9657;45.940;12.840;2023-06-01T08:42:49;6.70;;;5.07;;
19049;SDS011;9657;45.940;12.840;2023-06-01T08:45:23;6.20;;;5.35;;
19049;SDS011;9657;45.940;12.840;2023-06-01T08:47:52;6.20;;;5.60;;
19049;SDS011;9657;45.940;12.840;2023-06-01T08:50:20;6.25;;;5.10;;
19049;SDS011;9657;45.940;12.840;2023-06-01T08:52:47;6.18;;;5.05;;
19049;SDS011;9657;45.940;12.840;2023-06-01T08:55:21;7.05;;;5.03;;
19049;SDS011;9657;45.940;12.840;2023-06-01T08:57:48;5.65;;;5.15;;
19049;SDS011;9657;45.940;12.840;2023-06-01T09:00:16;5.93;;;5.28;;
19049;SDS011;9657;45.940;12.840;2023-06-01T09:02:44;6.75;;;5.15;;
19049;SDS011;9657;45.940;12.840;2023-06-01T09:05:11;5.60;;;4.97;;
19049;SDS011;9657;45.940;12.840;2023-06-01T09:07:39;6.15;;;4.85;;
19049;SDS011;9657;45.940;12.840;2023-06-01T09:10:07;5.57;;;4.97;;
19049;SDS011;9657;45.940;12.840;2023-06-01T09:12:37;5.63;;;4.90;;
19049;SDS011;9657;45.940;12.840;2023-06-01T09:15:07;6.38;;;4.90;;
19049;SDS011;9657;45.940;12.840;2023-06-01T09:17:36;6.13;;;5.55;;
19049;SDS011;9657;45.940;12.840;2023-06-01T09:20:04;4.95;;;4.55;;
19049;SDS011;9657;45.940;12.840;2023-06-01T09:22:40;5.30;;;4.72;;
19049;SDS011;9657;45.940;12.840;2023-06-01T09:25:08;5.82;;;4.72;;
19049;SDS011;9657;45.940;12.840;2023-06-01T09:27:49;5.80;;;4.93;;
19049;SDS011;9657;45.940;12.840;2023-06-01T09:30:17;5.95;;;4.63;;
19049;SDS011;9657;45.940;12.840;2023-06-01T09:32:45;5.13;;;4.47;;
19049;SDS011;9657;45.940;12.840;2023-06-01T09:35:15;5.97;;;5.20;;
19049;SDS011;9657;45.940;12.840;2023-06-01T09:37:53;5.90;;;4.38;;
19049;SDS011;9657;45.940;12.840;2023-06-01T09:40:22;5.28;;;4.78;;
19049;SDS011;9657;45.940;12.840;2023-06-01T09:42:50;4.85;;;4.25;;
19049;SDS011;9657;45.940;12.840;2023-06-01T09:45:18;4.85;;;4.35;;
19049;SDS011;9657;45.940;12.840;2023-06-01T09:47:47;5.05;;;4.55;;
19049;SDS011;9657;45.940;12.840;2023-06-01T09:50:33;4.82;;;4.32;;
19049;SDS011;9657;45.940;12.840;2023-06-01T09:53:00;6.03;;;4.95;;
19049;SDS011;9657;45.940;12.840;2023-06-01T09:55:28;5.60;;;4.50;;
19049;SDS011;9657;45.940;12.840;2023-06-01T10:00:45;4.82;;;4.38;;
19049;SDS011;9657;45.940;12.840;2023-06-01T10:03:13;5.13;;;4.45;;
19049;SDS011;9657;45.940;12.840;2023-06-01T10:05:41;4.72;;;4.32;;
19049;SDS011;9657;45.940;12.840;2023-06-01T10:08:10;5.22;;;4.72;;
19049;SDS011;9657;45.940;12.840;2023-06-01T10:10:39;5.03;;;4.53;;
19049;SDS011;9657;45.940;12.840;2023-06-01T10:13:07;5.93;;;4.47;;
19049;SDS011;9657;45.940;12.840;2023-06-01T10:15:36;5.45;;;4.43;;
19049;SDS011;9657;45.940;12.840;2023-06-01T10:18:03;5.65;;;4.40;;
19049;SDS011;9657;45.940;12.840;2023-06-01T10:20:32;4.65;;;4.15;;
19049;SDS011;9657;45.940;12.840;2023-06-01T10:23:00;4.97;;;4.55;;
19049;SDS011;9657;45.940;12.840;2023-06-01T10:25:28;5.45;;;4.65;;
19049;SDS011;9657;45.940;12.840;2023-06-01T10:27:58;4.38;;;3.90;;
19049;SDS011;9657;45.940;12.840;2023-06-01T10:30:28;4.70;;;4.30;;
19049;SDS011;9657;45.940;12.840;2023-06-01T10:32:57;5.28;;;4.78;;
19049;SDS011;9657;45.940;12.840;2023-06-01T10:38:28;4.75;;;4.35;;
19049;SDS011;9657;45.940;12.840;2023-06-01T10:43:56;4.80;;;4.40;;
19049;SDS011;9657;45.940;12.840;2023-06-01T10:46:34;5.00;;;4.60;;
19049;SDS011;9657;45.940;12.840;2023-06-01T10:49:08;4.57;;;4.18;;
19049;SDS011;9657;45.940;12.840;2023-06-01T10:51:36;5.00;;;4.53;;
19049;SDS011;9657;45.940;12.840;2023-06-01T11:05:40;4.72;;;4.22;;
19049;SDS011;9657;45.940;12.840;2023-06-01T11:11:18;5.22;;;4.55;;
19049;SDS011;9657;45.940;12.840;2023-06-01T11:16:36;4.78;;;4.32;;
19049;SDS011;9657;45.940;12.840;2023-06-01T11:19:04;5.63;;;4.55;;
19049;SDS011;9657;45.940;12.840;2023-06-01T11:21:34;4.35;;;3.95;;
19049;SDS011;9657;45.940;12.840;2023-06-01T11:24:06;5.35;;;4.75;;
19049;SDS011;9657;45.940;12.840;2023-06-01T11:26:36;5.85;;;4.35;;
19049;SDS011;9657;45.940;12.840;2023-06-01T11:29:06;4.60;;;4.20;;
19049;SDS011;9657;45.940;12.840;2023-06-01T11:31:37;4.60;;;4.07;;
19049;SDS011;9657;45.940;12.840;2023-06-01T11:34:11;4.93;;;4.43;;
19049;SDS011;9657;45.940;12.840;2023-06-01T11:36:41;6.25;;;4.43;;
19049;SDS011;9657;45.940;12.840;2023-06-01T11:39:16;5.00;;;4.22;;
19049;SDS011;9657;45.940;12.840;2023-06-01T11:41:47;5.80;;;4.50;;
19049;SDS011;9657;45.940;12.840;2023-06-01T11:44:15;4.90;;;4.38;;
19049;SDS011;9657;45.940;12.840;2023-06-01T11:46:52;5.45;;;4.93;;
19049;SDS011;9657;45.940;12.840;2023-06-01T11:49:21;4.45;;;4.00;;
19049;SDS011;9657;45.940;12.840;2023-06-01T11:51:49;5.22;;;4.72;;
19049;SDS011;9657;45.940;12.840;2023-06-01T11:54:21;6.18;;;4.55;;
19049;SDS011;9657;45.940;12.840;2023-06-01T11:56:49;5.07;;;4.57;;
19049;SDS011;9657;45.940;12.840;2023-06-01T11:59:18;4.78;;;4.30;;
19049;SDS011;9657;45.940;12.840;2023-06-01T12:01:46;5.00;;;4.50;;
19049;SDS011;9657;45.940;12.840;2023-06-01T12:04:14;4.65;;;4.07;;
19049;SDS011;9657;45.940;12.840;2023-06-01T12:06:43;4.53;;;4.10;;
19049;SDS011;9657;45.940;12.840;2023-06-01T12:09:12;4.57;;;4.18;;
19049;SDS011;9657;45.940;12.840;2023-06-01T12:11:42;4.57;;;4.18;;
19049;SDS011;9657;45.940;12.840;2023-06-01T12:14:09;4.88;;;4.38;;
19049;SDS011;9657;45.940;12.840;2023-06-01T12:16:50;5.35;;;4.68;;
19049;SDS011;9657;45.940;12.840;2023-06-01T12:19:19;4.55;;;4.13;;
19049;SDS011;9657;45.940;12.840;2023-06-01T12:21:47;4.50;;;4.10;;
19049;SDS011;9657;45.940;12.840;2023-06-01T12:24:17;4.50;;;4.10;;
19049;SDS011;9657;45.940;12.840;2023-06-01T12:26:44;4.40;;;4.00;;
19049;SDS011;9657;45.940;12.840;2023-06-01T12:29:11;4.35;;;4.05;;
19049;SDS011;9657;45.940;12.840;2023-06-01T12:31:38;5.22;;;4.72;;
19049;SDS011;9657;45.940;12.840;2023-06-01T12:34:17;4.57;;;4.18;;
19049;SDS011;9657;45.940;12.840;2023-06-01T12:36:44;4.25;;;3.85;;
19049;SDS011;9657;45.940;12.840;2023-06-01T12:39:11;4.72;;;4.32;;
19049;SDS011;9657;45.940;12.840;2023-06-01T12:41:48;4.25;;;3.85;;
19049;SDS011;9657;45.940;12.840;2023-06-01T12:44:19;4.75;;;4.35;;
19049;SDS011;9657;45.940;12.840;2023-06-01T12:46:46;4.45;;;4.05;;
19049;SDS011;9657;45.940;12.840;2023-06-01T12:49:13;5.03;;;4.53;;
19049;SDS011;9657;45.940;12.840;2023-06-01T12:51:42;4.68;;;4.22;;
19049;SDS011;9657;45.940;12.840;2023-06-01T12:54:10;5.63;;;4.32;;
19049;SDS011;9657;45.940;12.840;2023-06-01T12:56:38;4.57;;;4.10;;
19049;SDS011;9657;45.940;12.840;2023-06-01T12:59:06;5.68;;;4.72;;
19049;SDS011;9657;45.940;12.840;2023-06-01T13:01:33;4.75;;;4.35;;
19049;SDS011;9657;45.940;12.840;2023-06-01T13:04:00;4.63;;;4.10;;
19049;SDS011;9657;45.940;12.840;2023-06-01T13:06:29;5.22;;;4.57;;
19049;SDS011;9657;45.940;12.840;2023-06-01T13:08:56;4.60;;;4.20;;
19049;SDS011;9657;45.940;12.840;2023-06-01T13:11:23;4.70;;;4.30;;
19049;SDS011;9657;45.940;12.840;2023-06-01T13:13:50;4.93;;;4.30;;
19049;SDS011;9657;45.940;12.840;2023-06-01T13:16:19;5.78;;;3.92;;
19049;SDS011;9657;45.940;12.840;2023-06-01T13:18:47;4.50;;;4.10;;
19049;SDS011;9657;45.940;12.840;2023-06-01T13:21:15;4.97;;;4.05;;
19049;SDS011;9657;45.940;12.840;2023-06-01T13:23:43;4.82;;;4.22;;
19049;SDS011;9657;45.940;12.840;2023-06-01T13:26:11;4.07;;;3.67;;
19049;SDS011;9657;45.940;12.840;2023-06-01T13:28:39;5.35;;;4.85;;
19049;SDS011;9657;45.940;12.840;2023-06-01T13:31:06;4.45;;;4.05;;
19049;SDS011;9657;45.940;12.840;2023-06-01T13:33:35;4.85;;;4.35;;
19049;SDS011;9657;45.940;12.840;2023-06-01T13:36:02;6.25;;;4.60;;
19049;SDS011;9657;45.940;12.840;2023-06-01T13:38:30;4.72;;;4.30;;
19049;SDS011;9657;45.940;12.840;2023-06-01T13:40:57;4.50;;;4.10;;
19049;SDS011;9657;45.940;12.840;2023-06-01T13:43:25;6.38;;;5.20;;
19049;SDS011;9657;45.940;12.840;2023-06-01T13:45:52;5.07;;;4.43;;
19049;SDS011;9657;45.940;12.840;2023-06-01T13:48:19;4.70;;;4.30;;
19049;SDS011;9657;45.940;12.840;2023-06-01T13:50:48;4.97;;;4.47;;
19049;SDS011;9657;45.940;12.840;2023-06-01T13:53:16;4.78;;;4.30;;
19049;SDS011;9657;45.940;12.840;2023-06-01T13:55:43;4.82;;;4.43;;
19049;SDS011;9657;45.940;12.840;2023-06-01T13:58:11;5.20;;;4.70;;
19049;SDS011;9657;45.940;12.840;2023-06-01T14:00:38;4.40;;;4.00;;
19049;SDS011;9657;45.940;12.840;2023-06-01T14:03:05;4.20;;;3.80;;
19049;SDS011;9657;45.940;12.840;2023-06-01T14:05:32;5.05;;;4.47;;
19049;SDS011;9657;45.940;12.840;2023-06-01T14:08:01;4.68;;;4.28;;
19049;SDS011;9657;45.940;12.840;2023-06-01T14:10:29;4.30;;;3.90;;
19049;SDS011;9657;45.940;12.840;2023-06-01T14:12:59;4.30;;;3.78;;
19049;SDS011;9657;45.940;12.840;2023-06-01T14:15:26;5.20;;;4.70;;
19049;SDS011;9657;45.940;12.840;2023-06-01T14:17:53;4.88;;;4.47;;
19049;SDS011;9657;45.940;12.840;2023-06-01T14:20:21;4.75;;;4.35;;
19049;SDS011;9657;45.940;12.840;2023-06-01T14:22:48;4.80;;;4.40;;
19049;SDS011;9657;45.940;12.840;2023-06-01T14:25:17;4.53;;;4.10;;
19049;SDS011;9657;45.940;12.840;2023-06-01T14:27:44;5.22;;;4.70;;
19049;SDS011;9657;45.940;12.840;2023-06-01T14:30:11;5.43;;;4.28;;
19049;SDS011;9657;45.940;12.840;2023-06-01T14:32:38;5.00;;;4.53;;
19049;SDS011;9657;45.940;12.840;2023-06-01T14:35:05;4.65;;;4.25;;
19049;SDS011;9657;45.940;12.840;2023-06-01T14:37:33;5.00;;;4.50;;
19049;SDS011;9657;45.940;12.840;2023-06-01T14:40:00;5.25;;;4.75;;
19049;SDS011;9657;45.940;12.840;2023-06-01T14:42:28;4.97;;;4.50;;
19049;SDS011;9657;45.940;12.840;2023-06-01T14:44:55;4.80;;;4.38;;
19049;SDS011;9657;45.940;12.840;2023-06-01T14:47:22;4.35;;;3.95;;
19049;SDS011;9657;45.940;12.840;2023-06-01T14:49:50;4.60;;;4.20;;
19049;SDS011;9657;45.940;12.840;2023-06-01T14:52:17;4.45;;;4.03;;
19049;SDS011;9657;45.940;12.840;2023-06-01T14:54:44;4.70;;;3.67;;
19049;SDS011;9657;45.940;12.840;2023-06-01T14:57:11;4.63;;;4.22;;
19049;SDS011;9657;45.940;12.840;2023-06-01T14:59:40;4.93;;;4.50;;
19049;SDS011;9657;45.940;12.840;2023-06-01T15:02:08;4.78;;;4.38;;
19049;SDS011;9657;45.940;12.840;2023-06-01T15:04:35;5.00;;;4.53;;
19049;SDS011;9657;45.940;12.840;2023-06-01T15:07:02;4.63;;;4.22;;
19049;SDS011;9657;45.940;12.840;2023-06-01T15:09:29;4.13;;;3.80;;
19049;SDS011;9657;45.940;12.840;2023-06-01T15:11:56;4.93;;;4.53;;
19049;SDS011;9657;45.940;12.840;2023-06-01T15:14:23;5.43;;;4.93;;
19049;SDS011;9657;45.940;12.840;2023-06-01T15:16:51;5.15;;;4.65;;
19049;SDS011;9657;45.940;12.840;2023-06-01T15:19:18;6.43;;;4.65;;
19049;SDS011;9657;45.940;12.840;2023-06-01T15:21:45;4.60;;;4.20;;
19049;SDS011;9657;45.940;12.840;2023-06-01T15:24:12;5.78;;;4.95;;
19049;SDS011;9657;45.940;12.840;2023-06-01T15:26:40;4.78;;;4.38;;